sensor_id;sensor_type;location;lat;lon;timestamp;P1;durP1;ratioP1;P2;durP2;ratioP2
69912;SDS011;57198;52.082;5.108;2022-09-12T00:02:01;21.02;;;16.38;;
69912;SDS011;57198;52.082;5.108;2022-09-12T00:04:29;20.27;;;17.02;;
69912;SDS011;57198;52.082;5.108;2022-09-12T00:06:56;20.70;;;16.90;;
69912;SDS011;57198;52.082;5.108;2022-09-12T00:09:24;17.55;;;15.60;;
69912;SDS011;57198;52.082;5.108;2022-09-12T00:11:51;25.85;;;19.77;;
69912;SDS011;57198;52.082;5.108;2022-09-12T00:14:18;21.60;;;19.13;;
69912;SDS011;57198;52.082;5.108;2022-09-12T00:16:45;24.30;;;19.58;;
69912;SDS011;57198;52.082;5.108;2022-09-12T00:19:13;24.27;;;19.17;;
69912;SDS011;57198;52.082;5.108;2022-09-12T00:21:40;20.60;;;18.15;;
69912;SDS011;57198;52.082;5.108;2022-09-12T00:24:08;23.80;;;18.98;;
69912;SDS011;57198;52.082;5.108;2022-09-12T00:26:35;23.85;;;18.95;;
69912;SDS011;57198;52.082;5.108;2022-09-12T00:29:04;23.63;;;18.67;;
69912;SDS011;57198;52.082;5.108;2022-09-12T00:31:31;22.60;;;20.00;;
69912;SDS011;57198;52.082;5.108;2022-09-12T00:33:59;20.08;;;16.98;;
69912;SDS011;57198;52.082;5.108;2022-09-12T00:36:27;22.88;;;19.95;;
69912;SDS011;57198;52.082;5.108;2022-09-12T00:38:55;22.45;;;17.60;;
69912;SDS011;57198;52.082;5.108;2022-09-12T00:43:51;25.43;;;19.67;;
69912;SDS011;57198;52.082;5.108;2022-09-12T00:48:51;23.38;;;20.65;;
69912;SDS011;57198;52.082;5.108;2022-09-12T00:51:19;23.15;;;18.73;;
69912;SDS011;57198;52.082;5.108;2022-09-12T00:53:47;25.60;;;19.60;;
69912;SDS011;57198;52.082;5.108;2022-09-12T00:56:17;22.70;;;18.63;;
69912;SDS011;57198;52.082;5.108;2022-09-12T00:59:04;24.67;;;20.92;;
69912;SDS011;57198;52.082;5.108;2022-09-12T01:01:33;21.90;;;18.60;;
69912;SDS011;57198;52.082;5.108;2022-09-12T01:04:01;23.92;;;20.23;;
69912;SDS011;57198;52.082;5.108;2022-09-12T01:06:31;24.02;;;20.73;;
69912;SDS011;57198;52.082;5.108;2022-09-12T01:09:00;22.73;;;19.30;;
69912;SDS011;57198;52.082;5.108;2022-09-12T01:11:36;25.25;;;20.75;;
69912;SDS011;57198;52.082;5.108;2022-09-12T01:14:05;27.77;;;21.13;;
69912;SDS011;57198;52.082;5.108;2022-09-12T01:16:38;24.38;;;21.00;;
69912;SDS011;57198;52.082;5.108;2022-09-12T01:24:37;22.90;;;18.50;;
69912;SDS011;57198;52.082;5.108;2022-09-12T01:42:32;21.58;;;17.65;;
69912;SDS011;57198;52.082;5.108;2022-09-12T01:45:20;25.30;;;19.48;;
69912;SDS011;57198;52.082;5.108;2022-09-12T01:47:52;27.03;;;20.47;;
69912;SDS011;57198;52.082;5.108;2022-09-12T01:50:33;30.17;;;21.58;;
69912;SDS011;57198;52.082;5.108;2022-09-12T01:53:08;23.05;;;19.27;;
69912;SDS011;57198;52.082;5.108;2022-09-12T01:55:50;24.40;;;19.77;;
69912;SDS011;57198;52.082;5.108;2022-09-12T01:58:19;26.45;;;22.05;;
69912;SDS011;57198;52.082;5.108;2022-09-12T02:01:01;25.63;;;19.17;;
69912;SDS011;57198;52.082;5.108;2022-09-12T02:03:38;21.45;;;18.10;;
69912;SDS011;57198;52.082;5.108;2022-09-12T02:08:44;25.20;;;20.48;;
69912;SDS011;57198;52.082;5.108;2022-09-12T02:11:12;26.20;;;20.70;;
69912;SDS011;57198;52.082;5.108;2022-09-12T02:13:40;26.53;;;21.00;;
69912;SDS011;57198;52.082;5.108;2022-09-12T02:16:10;26.38;;;19.98;;
69912;SDS011;57198;52.082;5.108;2022-09-12T02:18:43;30.67;;;22.83;;
69912;SDS011;57198;52.082;5.108;2022-09-12T02:21:11;25.13;;;20.42;;
69912;SDS011;57198;52.082;5.108;2022-09-12T02:23:42;23.90;;;19.65;;
69912;SDS011;57198;52.082;5.108;2022-09-12T02:26:18;26.90;;;20.67;;
69912;SDS011;57198;52.082;5.108;2022-09-12T02:28:50;26.00;;;21.20;;
69912;SDS011;57198;52.082;5.108;2022-09-12T02:31:22;28.25;;;22.50;;
69912;SDS011;57198;52.082;5.108;2022-09-12T02:38:55;26.63;;;20.87;;
69912;SDS011;57198;52.082;5.108;2022-09-12T02:41:22;27.17;;;21.30;;
69912;SDS011;57198;52.082;5.108;2022-09-12T02:43:50;27.45;;;22.02;;
69912;SDS011;57198;52.082;5.108;2022-09-12T02:46:30;25.58;;;21.33;;
69912;SDS011;57198;52.082;5.108;2022-09-12T02:48:59;27.88;;;22.02;;
69912;SDS011;57198;52.082;5.108;2022-09-12T02:51:26;33.77;;;23.03;;
69912;SDS011;57198;52.082;5.108;2022-09-12T02:53:53;28.90;;;22.10;;
69912;SDS011;57198;52.082;5.108;2022-09-12T02:56:26;34.47;;;25.08;;
69912;SDS011;57198;52.082;5.108;2022-09-12T02:58:54;28.35;;;22.52;;
69912;SDS011;57198;52.082;5.108;2022-09-12T03:01:29;29.38;;;22.98;;
69912;SDS011;57198;52.082;5.108;2022-09-12T03:06:45;30.42;;;23.23;;
69912;SDS011;57198;52.082;5.108;2022-09-12T03:09:35;32.20;;;24.10;;
69912;SDS011;57198;52.082;5.108;2022-09-12T03:12:17;30.60;;;23.58;;
69912;SDS011;57198;52.082;5.108;2022-09-12T03:14:51;30.13;;;23.23;;
69912;SDS011;57198;52.082;5.108;2022-09-12T03:20:12;33.20;;;23.00;;
69912;SDS011;57198;52.082;5.108;2022-09-12T03:25:34;26.38;;;20.45;;
69912;SDS011;57198;52.082;5.108;2022-09-12T03:28:06;29.98;;;22.17;;
69912;SDS011;57198;52.082;5.108;2022-09-12T03:30:48;30.03;;;22.57;;
69912;SDS011;57198;52.082;5.108;2022-09-12T03:33:17;31.23;;;21.33;;
69912;SDS011;57198;52.082;5.108;2022-09-12T03:35:45;28.70;;;22.10;;
69912;SDS011;57198;52.082;5.108;2022-09-12T03:38:13;27.13;;;22.20;;
69912;SDS011;57198;52.082;5.108;2022-09-12T03:40:40;27.50;;;21.90;;
69912;SDS011;57198;52.082;5.108;2022-09-12T03:43:08;25.73;;;20.53;;
69912;SDS011;57198;52.082;5.108;2022-09-12T03:45:35;26.75;;;20.58;;
69912;SDS011;57198;52.082;5.108;2022-09-12T03:48:04;26.83;;;21.40;;
69912;SDS011;57198;52.082;5.108;2022-09-12T03:50:31;28.48;;;21.67;;
69912;SDS011;57198;52.082;5.108;2022-09-12T03:52:59;28.17;;;22.55;;
69912;SDS011;57198;52.082;5.108;2022-09-12T03:55:26;28.30;;;21.63;;
69912;SDS011;57198;52.082;5.108;2022-09-12T03:57:54;26.30;;;21.27;;
69912;SDS011;57198;52.082;5.108;2022-09-12T04:00:21;29.13;;;23.73;;
69912;SDS011;57198;52.082;5.108;2022-09-12T04:02:52;29.40;;;22.65;;
69912;SDS011;57198;52.082;5.108;2022-09-12T04:05:20;26.88;;;22.60;;
69912;SDS011;57198;52.082;5.108;2022-09-12T04:07:47;26.50;;;21.13;;
69912;SDS011;57198;52.082;5.108;2022-09-12T04:10:14;30.15;;;21.92;;
69912;SDS011;57198;52.082;5.108;2022-09-12T04:12:42;32.15;;;23.08;;
69912;SDS011;57198;52.082;5.108;2022-09-12T04:15:09;29.30;;;22.48;;
69912;SDS011;57198;52.082;5.108;2022-09-12T04:17:37;31.92;;;23.88;;
69912;SDS011;57198;52.082;5.108;2022-09-12T04:20:04;30.97;;;23.43;;
69912;SDS011;57198;52.082;5.108;2022-09-12T04:22:32;30.20;;;23.23;;
69912;SDS011;57198;52.082;5.108;2022-09-12T04:24:59;29.27;;;23.10;;
69912;SDS011;57198;52.082;5.108;2022-09-12T04:27:27;29.85;;;23.08;;
69912;SDS011;57198;52.082;5.108;2022-09-12T04:29:54;30.52;;;24.38;;
69912;SDS011;57198;52.082;5.108;2022-09-12T04:32:22;30.83;;;23.77;;
69912;SDS011;57198;52.082;5.108;2022-09-12T04:34:49;32.42;;;23.20;;
69912;SDS011;57198;52.082;5.108;2022-09-12T04:37:18;34.58;;;24.15;;
69912;SDS011;57198;52.082;5.108;2022-09-12T04:39:45;28.33;;;20.20;;
69912;SDS011;57198;52.082;5.108;2022-09-12T04:42:14;28.23;;;21.83;;
69912;SDS011;57198;52.082;5.108;2022-09-12T04:44:42;29.57;;;21.90;;
69912;SDS011;57198;52.082;5.108;2022-09-12T04:47:09;29.02;;;22.20;;
69912;SDS011;57198;52.082;5.108;2022-09-12T04:49:36;25.30;;;20.45;;
69912;SDS011;57198;52.082;5.108;2022-09-12T04:52:06;27.58;;;21.13;;
69912;SDS011;57198;52.082;5.108;2022-09-12T04:54:33;30.08;;;20.73;;
69912;SDS011;57198;52.082;5.108;2022-09-12T04:57:01;27.83;;;20.60;;
69912;SDS011;57198;52.082;5.108;2022-09-12T04:59:28;29.77;;;22.33;;
69912;SDS011;57198;52.082;5.108;2022-09-12T05:01:55;25.33;;;19.52;;
69912;SDS011;57198;52.082;5.108;2022-09-12T05:04:22;27.15;;;20.98;;
69912;SDS011;57198;52.082;5.108;2022-09-12T05:06:50;27.17;;;19.90;;
69912;SDS011;57198;52.082;5.108;2022-09-12T05:09:17;26.80;;;18.60;;
69912;SDS011;57198;52.082;5.108;2022-09-12T05:11:44;24.45;;;18.70;;
69912;SDS011;57198;52.082;5.108;2022-09-12T05:14:29;27.73;;;22.00;;
69912;SDS011;57198;52.082;5.108;2022-09-12T05:16:57;27.33;;;20.60;;
69912;SDS011;57198;52.082;5.108;2022-09-12T05:19:27;26.15;;;20.60;;
69912;SDS011;57198;52.082;5.108;2022-09-12T05:21:54;30.37;;;22.07;;
69912;SDS011;57198;52.082;5.108;2022-09-12T05:24:21;27.90;;;21.65;;
69912;SDS011;57198;52.082;5.108;2022-09-12T05:26:49;28.95;;;22.45;;
69912;SDS011;57198;52.082;5.108;2022-09-12T05:29:16;27.92;;;21.95;;
69912;SDS011;57198;52.082;5.108;2022-09-12T05:31:43;30.52;;;22.08;;
69912;SDS011;57198;52.082;5.108;2022-09-12T05:34:11;34.53;;;23.10;;
69912;SDS011;57198;52.082;5.108;2022-09-12T05:36:38;30.27;;;21.98;;
69912;SDS011;57198;52.082;5.108;2022-09-12T05:39:05;28.20;;;20.27;;
69912;SDS011;57198;52.082;5.108;2022-09-12T05:41:33;29.55;;;22.10;;
69912;SDS011;57198;52.082;5.108;2022-09-12T05:44:02;27.88;;;20.92;;
69912;SDS011;57198;52.082;5.108;2022-09-12T05:46:31;28.97;;;20.83;;
69912;SDS011;57198;52.082;5.108;2022-09-12T05:49:02;32.97;;;22.48;;
69912;SDS011;57198;52.082;5.108;2022-09-12T05:51:31;29.92;;;21.48;;
69912;SDS011;57198;52.082;5.108;2022-09-12T05:53:59;30.23;;;21.70;;
69912;SDS011;57198;52.082;5.108;2022-09-12T05:56:27;31.77;;;23.15;;
69912;SDS011;57198;52.082;5.108;2022-09-12T05:58:57;32.93;;;21.23;;
69912;SDS011;57198;52.082;5.108;2022-09-12T06:01:25;32.78;;;20.63;;
69912;SDS011;57198;52.082;5.108;2022-09-12T06:03:54;29.92;;;21.15;;
69912;SDS011;57198;52.082;5.108;2022-09-12T06:06:22;28.88;;;20.73;;
69912;SDS011;57198;52.082;5.108;2022-09-12T06:08:51;34.58;;;22.83;;
69912;SDS011;57198;52.082;5.108;2022-09-12T06:11:19;28.13;;;20.47;;
69912;SDS011;57198;52.082;5.108;2022-09-12T06:13:47;30.20;;;21.38;;
69912;SDS011;57198;52.082;5.108;2022-09-12T06:16:16;31.52;;;23.13;;
69912;SDS011;57198;52.082;5.108;2022-09-12T06:18:51;36.10;;;22.98;;
69912;SDS011;57198;52.082;5.108;2022-09-12T06:21:19;32.10;;;22.85;;
69912;SDS011;57198;52.082;5.108;2022-09-12T06:23:50;30.80;;;23.07;;
69912;SDS011;57198;52.082;5.108;2022-09-12T06:26:17;30.15;;;22.67;;
69912;SDS011;57198;52.082;5.108;2022-09-12T06:28:48;38.63;;;21.02;;
69912;SDS011;57198;52.082;5.108;2022-09-12T06:31:20;28.73;;;20.90;;
69912;SDS011;57198;52.082;5.108;2022-09-12T06:33:48;27.38;;;20.25;;
69912;SDS011;57198;52.082;5.108;2022-09-12T06:36:21;29.50;;;21.23;;
69912;SDS011;57198;52.082;5.108;2022-09-12T06:38:56;36.88;;;23.52;;
69912;SDS011;57198;52.082;5.108;2022-09-12T06:41:24;29.92;;;21.60;;
69912;SDS011;57198;52.082;5.108;2022-09-12T06:43:52;27.55;;;20.58;;
69912;SDS011;57198;52.082;5.108;2022-09-12T06:46:19;31.00;;;21.90;;
69912;SDS011;57198;52.082;5.108;2022-09-12T06:48:47;29.77;;;21.97;;
69912;SDS011;57198;52.082;5.108;2022-09-12T06:51:16;31.10;;;21.42;;
69912;SDS011;57198;52.082;5.108;2022-09-12T06:53:45;28.55;;;21.27;;
69912;SDS011;57198;52.082;5.108;2022-09-12T06:56:14;28.77;;;20.58;;
69912;SDS011;57198;52.082;5.108;2022-09-12T06:58:42;31.35;;;21.95;;
69912;SDS011;57198;52.082;5.108;2022-09-12T07:01:19;29.10;;;21.27;;
69912;SDS011;57198;52.082;5.108;2022-09-12T07:03:48;32.58;;;22.70;;
69912;SDS011;57198;52.082;5.108;2022-09-12T07:06:17;32.83;;;22.52;;
69912;SDS011;57198;52.082;5.108;2022-09-12T07:08:44;31.27;;;22.85;;
69912;SDS011;57198;52.082;5.108;2022-09-12T07:11:22;30.13;;;21.50;;
69912;SDS011;57198;52.082;5.108;2022-09-12T07:13:50;34.30;;;23.10;;
69912;SDS011;57198;52.082;5.108;2022-09-12T07:16:18;30.13;;;20.90;;
69912;SDS011;57198;52.082;5.108;2022-09-12T07:18:50;33.58;;;23.15;;
69912;SDS011;57198;52.082;5.108;2022-09-12T07:21:17;28.42;;;22.13;;
69912;SDS011;57198;52.082;5.108;2022-09-12T07:23:45;34.28;;;23.25;;
69912;SDS011;57198;52.082;5.108;2022-09-12T07:26:13;33.53;;;23.47;;
69912;SDS011;57198;52.082;5.108;2022-09-12T07:28:40;29.35;;;21.67;;
69912;SDS011;57198;52.082;5.108;2022-09-12T07:31:13;30.25;;;21.35;;
69912;SDS011;57198;52.082;5.108;2022-09-12T07:33:40;31.77;;;20.95;;
69912;SDS011;57198;52.082;5.108;2022-09-12T07:36:14;27.52;;;20.67;;
69912;SDS011;57198;52.082;5.108;2022-09-12T07:38:42;28.13;;;19.37;;
69912;SDS011;57198;52.082;5.108;2022-09-12T07:41:10;32.17;;;20.65;;
69912;SDS011;57198;52.082;5.108;2022-09-12T07:43:38;27.30;;;20.67;;
69912;SDS011;57198;52.082;5.108;2022-09-12T07:46:05;39.80;;;21.73;;
69912;SDS011;57198;52.082;5.108;2022-09-12T07:48:33;33.22;;;22.40;;
69912;SDS011;57198;52.082;5.108;2022-09-12T07:51:00;27.97;;;19.73;;
69912;SDS011;57198;52.082;5.108;2022-09-12T07:53:33;27.02;;;20.48;;
69912;SDS011;57198;52.082;5.108;2022-09-12T07:56:01;29.73;;;22.67;;
69912;SDS011;57198;52.082;5.108;2022-09-12T07:58:30;27.00;;;20.20;;
69912;SDS011;57198;52.082;5.108;2022-09-12T08:01:07;32.00;;;20.23;;
69912;SDS011;57198;52.082;5.108;2022-09-12T08:03:35;24.47;;;18.90;;
69912;SDS011;57198;52.082;5.108;2022-09-12T08:08:30;27.42;;;21.30;;
69912;SDS011;57198;52.082;5.108;2022-09-12T08:10:58;29.85;;;19.75;;
69912;SDS011;57198;52.082;5.108;2022-09-12T08:13:26;29.42;;;20.23;;
69912;SDS011;57198;52.082;5.108;2022-09-12T08:16:01;30.33;;;18.97;;
69912;SDS011;57198;52.082;5.108;2022-09-12T08:18:29;24.02;;;17.95;;
69912;SDS011;57198;52.082;5.108;2022-09-12T08:21:02;28.75;;;19.73;;
69912;SDS011;57198;52.082;5.108;2022-09-12T08:23:30;26.67;;;18.70;;
69912;SDS011;57198;52.082;5.108;2022-09-12T08:25:58;24.33;;;19.00;;
69912;SDS011;57198;52.082;5.108;2022-09-12T08:28:32;23.00;;;17.67;;
69912;SDS011;57198;52.082;5.108;2022-09-12T08:31:03;22.80;;;17.98;;
69912;SDS011;57198;52.082;5.108;2022-09-12T08:33:30;21.95;;;17.88;;
69912;SDS011;57198;52.082;5.108;2022-09-12T08:36:06;22.98;;;17.65;;
69912;SDS011;57198;52.082;5.108;2022-09-12T08:38:34;24.30;;;17.38;;
69912;SDS011;57198;52.082;5.108;2022-09-12T08:43:40;23.35;;;17.00;;
69912;SDS011;57198;52.082;5.108;2022-09-12T08:49:07;22.48;;;17.83;;
69912;SDS011;57198;52.082;5.108;2022-09-12T08:51:35;24.77;;;17.60;;
69912;SDS011;57198;52.082;5.108;2022-09-12T08:54:03;24.00;;;17.83;;
69912;SDS011;57198;52.082;5.108;2022-09-12T08:56:32;31.10;;;17.25;;
69912;SDS011;57198;52.082;5.108;2022-09-12T08:59:02;26.75;;;18.75;;
69912;SDS011;57198;52.082;5.108;2022-09-12T09:01:30;22.83;;;17.25;;
69912;SDS011;57198;52.082;5.108;2022-09-12T09:06:39;22.23;;;15.23;;
69912;SDS011;57198;52.082;5.108;2022-09-12T09:11:48;21.20;;;17.17;;
69912;SDS011;57198;52.082;5.108;2022-09-12T09:14:38;22.33;;;16.90;;
69912;SDS011;57198;52.082;5.108;2022-09-12T09:17:17;19.80;;;16.77;;
69912;SDS011;57198;52.082;5.108;2022-09-12T09:19:47;22.33;;;13.50;;
69912;SDS011;57198;52.082;5.108;2022-09-12T09:24:58;18.42;;;15.18;;
69912;SDS011;57198;52.082;5.108;2022-09-12T09:30:22;18.25;;;13.32;;
69912;SDS011;57198;52.082;5.108;2022-09-12T09:32:51;19.17;;;14.80;;
69912;SDS011;57198;52.082;5.108;2022-09-12T09:35:36;16.63;;;13.65;;
69912;SDS011;57198;52.082;5.108;2022-09-12T09:38:07;18.33;;;13.40;;
69912;SDS011;57198;52.082;5.108;2022-09-12T09:45:44;14.07;;;10.27;;
69912;SDS011;57198;52.082;5.108;2022-09-12T09:48:18;13.95;;;10.05;;
69912;SDS011;57198;52.082;5.108;2022-09-12T09:50:46;14.23;;;10.45;;
69912;SDS011;57198;52.082;5.108;2022-09-12T09:53:22;13.77;;;10.75;;
69912;SDS011;57198;52.082;5.108;2022-09-12T09:55:50;14.90;;;11.07;;
69912;SDS011;57198;52.082;5.108;2022-09-12T09:58:28;14.47;;;9.87;;
69912;SDS011;57198;52.082;5.108;2022-09-12T10:01:10;13.60;;;10.63;;
69912;SDS011;57198;52.082;5.108;2022-09-12T10:03:38;14.80;;;10.40;;
69912;SDS011;57198;52.082;5.108;2022-09-12T10:08:48;14.55;;;10.55;;
69912;SDS011;57198;52.082;5.108;2022-09-12T10:11:17;11.67;;;9.97;;
69912;SDS011;57198;52.082;5.108;2022-09-12T10:13:52;11.05;;;9.95;;
69912;SDS011;57198;52.082;5.108;2022-09-12T10:16:32;15.75;;;11.10;;
69912;SDS011;57198;52.082;5.108;2022-09-12T10:19:01;12.23;;;9.90;;
69912;SDS011;57198;52.082;5.108;2022-09-12T10:24:15;11.70;;;8.77;;
69912;SDS011;57198;52.082;5.108;2022-09-12T10:26:48;10.82;;;8.70;;
69912;SDS011;57198;52.082;5.108;2022-09-12T10:29:26;12.43;;;9.52;;
69912;SDS011;57198;52.082;5.108;2022-09-12T10:31:56;8.45;;;7.53;;
69912;SDS011;57198;52.082;5.108;2022-09-12T10:34:36;10.23;;;9.07;;
69912;SDS011;57198;52.082;5.108;2022-09-12T10:37:07;10.47;;;8.07;;
69912;SDS011;57198;52.082;5.108;2022-09-12T10:39:36;8.75;;;7.47;;
69912;SDS011;57198;52.082;5.108;2022-09-12T10:42:05;9.35;;;8.25;;
69912;SDS011;57198;52.082;5.108;2022-09-12T10:44:33;8.52;;;7.60;;
69912;SDS011;57198;52.082;5.108;2022-09-12T10:47:21;7.03;;;6.43;;
69912;SDS011;57198;52.082;5.108;2022-09-12T10:49:50;7.47;;;5.67;;
69912;SDS011;57198;52.082;5.108;2022-09-12T10:52:24;6.47;;;5.88;;
69912;SDS011;57198;52.082;5.108;2022-09-12T10:55:17;7.47;;;5.20;;
69912;SDS011;57198;52.082;5.108;2022-09-12T10:58:11;6.82;;;5.63;;
69912;SDS011;57198;52.082;5.108;2022-09-12T11:00:45;6.95;;;5.32;;
69912;SDS011;57198;52.082;5.108;2022-09-12T11:03:15;7.23;;;5.60;;
69912;SDS011;57198;52.082;5.108;2022-09-12T11:05:58;6.28;;;5.68;;
69912;SDS011;57198;52.082;5.108;2022-09-12T11:08:39;7.65;;;6.03;;
69912;SDS011;57198;52.082;5.108;2022-09-12T11:16:32;6.63;;;5.30;;
69912;SDS011;57198;52.082;5.108;2022-09-12T11:30:17;8.27;;;5.20;;
69912;SDS011;57198;52.082;5.108;2022-09-12T11:35:32;6.43;;;4.20;;
69912;SDS011;57198;52.082;5.108;2022-09-12T11:40:42;6.45;;;5.03;;
69912;SDS011;57198;52.082;5.108;2022-09-12T11:45:51;6.90;;;3.97;;
69912;SDS011;57198;52.082;5.108;2022-09-12T11:50:54;5.93;;;5.15;;
69912;SDS011;57198;52.082;5.108;2022-09-12T11:53:42;6.30;;;4.43;;
69912;SDS011;57198;52.082;5.108;2022-09-12T11:56:13;5.00;;;4.50;;
69912;SDS011;57198;52.082;5.108;2022-09-12T11:58:46;7.88;;;5.00;;
69912;SDS011;57198;52.082;5.108;2022-09-12T12:01:22;5.57;;;4.50;;
69912;SDS011;57198;52.082;5.108;2022-09-12T12:03:51;5.65;;;4.60;;
69912;SDS011;57198;52.082;5.108;2022-09-12T12:06:31;5.68;;;4.50;;
69912;SDS011;57198;52.082;5.108;2022-09-12T12:09:03;8.27;;;4.50;;
69912;SDS011;57198;52.082;5.108;2022-09-12T12:11:33;5.38;;;4.57;;
69912;SDS011;57198;52.082;5.108;2022-09-12T12:14:06;6.07;;;3.90;;
69912;SDS011;57198;52.082;5.108;2022-09-12T12:16:39;4.60;;;4.13;;
69912;SDS011;57198;52.082;5.108;2022-09-12T12:21:44;7.93;;;3.83;;
69912;SDS011;57198;52.082;5.108;2022-09-12T12:24:31;8.75;;;3.60;;
69912;SDS011;57198;52.082;5.108;2022-09-12T12:27:03;3.97;;;3.55;;
69912;SDS011;57198;52.082;5.108;2022-09-12T12:29:35;5.47;;;4.03;;
69912;SDS011;57198;52.082;5.108;2022-09-12T12:34:45;10.17;;;3.93;;
69912;SDS011;57198;52.082;5.108;2022-09-12T12:39:55;4.35;;;3.88;;
69912;SDS011;57198;52.082;5.108;2022-09-12T12:48:06;4.43;;;3.33;;
69912;SDS011;57198;52.082;5.108;2022-09-12T12:50:37;3.67;;;3.30;;
69912;SDS011;57198;52.082;5.108;2022-09-12T12:53:25;7.85;;;3.70;;
69912;SDS011;57198;52.082;5.108;2022-09-12T12:56:05;5.60;;;4.18;;
69912;SDS011;57198;52.082;5.108;2022-09-12T12:58:34;5.32;;;4.35;;
69912;SDS011;57198;52.082;5.108;2022-09-12T13:01:27;3.80;;;3.40;;
69912;SDS011;57198;52.082;5.108;2022-09-12T13:06:44;3.58;;;2.90;;
69912;SDS011;57198;52.082;5.108;2022-09-12T13:09:26;3.58;;;3.28;;
69912;SDS011;57198;52.082;5.108;2022-09-12T13:12:04;4.03;;;2.78;;
69912;SDS011;57198;52.082;5.108;2022-09-12T13:14:58;5.73;;;2.73;;
69912;SDS011;57198;52.082;5.108;2022-09-12T13:17:38;4.35;;;3.10;;
69912;SDS011;57198;52.082;5.108;2022-09-12T13:20:22;3.72;;;3.22;;
69912;SDS011;57198;52.082;5.108;2022-09-12T13:22:55;3.95;;;2.20;;
69912;SDS011;57198;52.082;5.108;2022-09-12T13:30:36;4.57;;;2.72;;
69912;SDS011;57198;52.082;5.108;2022-09-12T13:33:09;3.05;;;2.80;;
69912;SDS011;57198;52.082;5.108;2022-09-12T13:35:49;3.30;;;2.25;;
69912;SDS011;57198;52.082;5.108;2022-09-12T13:38:23;4.93;;;2.20;;
69912;SDS011;57198;52.082;5.108;2022-09-12T13:43:24;3.97;;;2.50;;
69912;SDS011;57198;52.082;5.108;2022-09-12T13:45:53;5.20;;;2.97;;
69912;SDS011;57198;52.082;5.108;2022-09-12T13:48:20;5.82;;;2.50;;
69912;SDS011;57198;52.082;5.108;2022-09-12T13:50:50;3.55;;;2.90;;
69912;SDS011;57198;52.082;5.108;2022-09-12T13:53:22;2.93;;;2.20;;
69912;SDS011;57198;52.082;5.108;2022-09-12T13:55:59;4.18;;;2.67;;
69912;SDS011;57198;52.082;5.108;2022-09-12T13:58:30;2.40;;;2.20;;
69912;SDS011;57198;52.082;5.108;2022-09-12T14:01:04;2.40;;;2.00;;
69912;SDS011;57198;52.082;5.108;2022-09-12T14:03:33;2.50;;;2.10;;
69912;SDS011;57198;52.082;5.108;2022-09-12T14:06:24;3.80;;;2.20;;
69912;SDS011;57198;52.082;5.108;2022-09-12T14:08:53;3.88;;;2.58;;
69912;SDS011;57198;52.082;5.108;2022-09-12T14:11:27;2.70;;;2.50;;
69912;SDS011;57198;52.082;5.108;2022-09-12T14:13:55;3.53;;;2.40;;
69912;SDS011;57198;52.082;5.108;2022-09-12T14:16:23;3.10;;;2.80;;
69912;SDS011;57198;52.082;5.108;2022-09-12T14:18:54;6.03;;;2.20;;
69912;SDS011;57198;52.082;5.108;2022-09-12T14:21:29;2.55;;;2.40;;
69912;SDS011;57198;52.082;5.108;2022-09-12T14:23:59;3.25;;;2.33;;
69912;SDS011;57198;52.082;5.108;2022-09-12T14:26:27;3.67;;;2.65;;
69912;SDS011;57198;52.082;5.108;2022-09-12T14:28:57;3.17;;;2.30;;
69912;SDS011;57198;52.082;5.108;2022-09-12T14:31:29;3.20;;;2.47;;
69912;SDS011;57198;52.082;5.108;2022-09-12T14:34:07;2.35;;;2.15;;
69912;SDS011;57198;52.082;5.108;2022-09-12T14:39:06;3.15;;;2.28;;
69912;SDS011;57198;52.082;5.108;2022-09-12T14:41:41;3.35;;;2.25;;
69912;SDS011;57198;52.082;5.108;2022-09-12T14:44:13;3.90;;;2.30;;
69912;SDS011;57198;52.082;5.108;2022-09-12T14:46:41;3.35;;;2.10;;
69912;SDS011;57198;52.082;5.108;2022-09-12T14:49:20;3.28;;;2.50;;
69912;SDS011;57198;52.082;5.108;2022-09-12T14:56:54;2.00;;;1.90;;
69912;SDS011;57198;52.082;5.108;2022-09-12T15:04:39;3.05;;;2.17;;
69912;SDS011;57198;52.082;5.108;2022-09-12T15:09:54;1.90;;;1.70;;
69912;SDS011;57198;52.082;5.108;2022-09-12T15:12:21;4.28;;;1.90;;
69912;SDS011;57198;52.082;5.108;2022-09-12T15:14:48;2.72;;;1.95;;
69912;SDS011;57198;52.082;5.108;2022-09-12T15:17:16;3.45;;;2.10;;
69912;SDS011;57198;52.082;5.108;2022-09-12T15:19:43;1.98;;;1.77;;
69912;SDS011;57198;52.082;5.108;2022-09-12T15:22:11;3.00;;;1.90;;
69912;SDS011;57198;52.082;5.108;2022-09-12T15:24:39;2.05;;;1.85;;
69912;SDS011;57198;52.082;5.108;2022-09-12T15:27:12;4.35;;;2.38;;
69912;SDS011;57198;52.082;5.108;2022-09-12T15:29:39;3.38;;;2.17;;
69912;SDS011;57198;52.082;5.108;2022-09-12T15:32:09;4.15;;;2.35;;
69912;SDS011;57198;52.082;5.108;2022-09-12T15:34:40;2.50;;;2.30;;
69912;SDS011;57198;52.082;5.108;2022-09-12T15:37:10;2.72;;;2.53;;
69912;SDS011;57198;52.082;5.108;2022-09-12T15:39:39;2.80;;;2.42;;
69912;SDS011;57198;52.082;5.108;2022-09-12T15:42:07;2.58;;;2.30;;
69912;SDS011;57198;52.082;5.108;2022-09-12T15:44:35;3.05;;;2.60;;
69912;SDS011;57198;52.082;5.108;2022-09-12T15:47:02;2.50;;;2.30;;
69912;SDS011;57198;52.082;5.108;2022-09-12T15:49:30;2.45;;;2.20;;
69912;SDS011;57198;52.082;5.108;2022-09-12T15:51:58;4.07;;;2.30;;
69912;SDS011;57198;52.082;5.108;2022-09-12T15:54:25;3.15;;;2.85;;
69912;SDS011;57198;52.082;5.108;2022-09-12T15:57:01;3.13;;;2.70;;
69912;SDS011;57198;52.082;5.108;2022-09-12T15:59:28;2.50;;;1.93;;
69912;SDS011;57198;52.082;5.108;2022-09-12T16:02:03;2.22;;;2.00;;
69912;SDS011;57198;52.082;5.108;2022-09-12T16:04:31;3.05;;;2.15;;
69912;SDS011;57198;52.082;5.108;2022-09-12T16:07:03;5.68;;;2.33;;
69912;SDS011;57198;52.082;5.108;2022-09-12T16:09:35;5.85;;;2.30;;
69912;SDS011;57198;52.082;5.108;2022-09-12T16:12:04;2.50;;;2.20;;
69912;SDS011;57198;52.082;5.108;2022-09-12T16:14:35;3.58;;;2.42;;
69912;SDS011;57198;52.082;5.108;2022-09-12T16:17:12;3.63;;;2.33;;
69912;SDS011;57198;52.082;5.108;2022-09-12T16:19:40;2.42;;;2.25;;
69912;SDS011;57198;52.082;5.108;2022-09-12T16:22:08;3.03;;;2.40;;
69912;SDS011;57198;52.082;5.108;2022-09-12T16:24:39;4.37;;;2.70;;
69912;SDS011;57198;52.082;5.108;2022-09-12T16:27:12;2.53;;;2.17;;
69912;SDS011;57198;52.082;5.108;2022-09-12T16:29:39;4.03;;;2.05;;
69912;SDS011;57198;52.082;5.108;2022-09-12T16:32:13;2.25;;;2.10;;
69912;SDS011;57198;52.082;5.108;2022-09-12T16:35:00;3.17;;;2.38;;
69912;SDS011;57198;52.082;5.108;2022-09-12T16:37:27;2.87;;;2.00;;
69912;SDS011;57198;52.082;5.108;2022-09-12T16:39:58;2.17;;;1.98;;
69912;SDS011;57198;52.082;5.108;2022-09-12T16:42:25;3.17;;;1.90;;
69912;SDS011;57198;52.082;5.108;2022-09-12T16:44:54;3.15;;;1.85;;
69912;SDS011;57198;52.082;5.108;2022-09-12T16:47:27;2.35;;;2.00;;
69912;SDS011;57198;52.082;5.108;2022-09-12T16:50:00;2.70;;;2.20;;
69912;SDS011;57198;52.082;5.108;2022-09-12T16:52:28;2.67;;;1.98;;
69912;SDS011;57198;52.082;5.108;2022-09-12T16:54:59;3.30;;;2.03;;
69912;SDS011;57198;52.082;5.108;2022-09-12T16:57:26;2.45;;;1.67;;
69912;SDS011;57198;52.082;5.108;2022-09-12T16:59:55;1.90;;;1.80;;
69912;SDS011;57198;52.082;5.108;2022-09-12T17:02:30;6.13;;;2.10;;
69912;SDS011;57198;52.082;5.108;2022-09-12T17:04:57;2.28;;;2.10;;
69912;SDS011;57198;52.082;5.108;2022-09-12T17:07:34;2.55;;;2.05;;
69912;SDS011;57198;52.082;5.108;2022-09-12T17:10:12;2.88;;;1.95;;
69912;SDS011;57198;52.082;5.108;2022-09-12T17:12:43;1.85;;;1.73;;